createdAt,value
2023-04-11T03:41:01.064Z,0.1
2023-04-11T03:43:01.285Z,0.2
2023-04-11T03:44:00.376Z,0.3
2023-04-11T03:45:01.366Z,0.3
2023-04-11T03:46:00.588Z,0.4
2023-04-11T03:47:00.422Z,0.5
2023-04-11T03:49:00.371Z,0.6
2023-04-11T03:50:00.411Z,0.7
2023-04-11T03:51:00.851Z,0.9
2023-04-11T03:52:00.632Z,1.1
2023-04-11T03:53:00.383Z,1.3
2023-04-11T03:54:00.376Z,1.6
2023-04-11T03:55:01.234Z,1.9
2023-04-11T03:56:00.832Z,2.4
2023-04-11T03:57:00.396Z,2.9
2023-04-11T03:58:00.689Z,3.3
2023-04-11T03:59:00.642Z,3.9
2023-04-11T04:00:01.254Z,4.4
2023-04-11T04:01:15.391Z,4.8
2023-04-11T04:02:00.876Z,5.2
2023-04-11T04:03:00.781Z,5.6
2023-04-11T04:04:00.980Z,6.3
2023-04-11T04:05:01.445Z,6.9
2023-04-11T04:07:00.580Z,8.4
2023-04-11T04:08:00.399Z,9.1
2023-04-11T04:09:00.374Z,9.4
2023-04-11T04:10:00.929Z,9.7
2023-04-11T04:11:00.620Z,10.3
2023-04-11T04:12:00.575Z,10.9
2023-04-11T04:13:00.406Z,11.5
2023-04-11T04:14:00.372Z,12.1
2023-04-11T04:17:00.690Z,14.7
2023-04-11T04:18:00.410Z,15.6
2023-04-11T04:19:00.379Z,16.6
2023-04-11T04:20:01.049Z,17.6
2023-04-11T04:22:00.611Z,20.4
2023-04-11T04:23:00.397Z,21.8
2023-04-11T04:24:00.377Z,24.1
2023-04-11T04:25:01.045Z,26.3
2023-04-11T04:26:00.653Z,29.4
2023-04-11T04:27:00.593Z,32.5
2023-04-11T04:28:01.400Z,35.5
2023-04-11T04:29:00.407Z,40.2
2023-04-11T04:32:00.610Z,57.0
2023-04-11T04:33:00.432Z,63.1
2023-04-11T04:34:00.380Z,71.3
2023-04-11T04:37:01.377Z,98.4
2023-04-11T04:38:00.387Z,107.9
2023-04-11T04:39:00.381Z,119.5
2023-04-11T04:40:01.075Z,131.2
2023-04-11T04:42:00.627Z,158.4
2023-04-11T04:43:00.419Z,172.0
2023-04-11T04:44:00.394Z,187.8
2023-04-11T04:45:01.082Z,203.6
2023-04-11T04:47:00.625Z,235.2
2023-04-11T04:48:00.392Z,251.0
2023-04-11T04:49:02.130Z,268.9
2023-04-11T04:50:01.045Z,286.9
2023-04-11T04:51:00.460Z,312.5
2023-04-11T04:52:01.506Z,338.1
2023-04-11T04:53:00.452Z,363.7
2023-04-11T04:54:00.482Z,405.3
2023-04-11T04:55:01.517Z,446.9
2023-04-11T04:56:00.677Z,494.7
2023-04-11T04:57:01.488Z,542.5
2023-04-11T04:58:00.390Z,590.3
2023-04-11T04:59:00.389Z,623.1
2023-04-11T05:02:00.693Z,750.7
2023-04-11T05:03:00.661Z,798.1
2023-04-11T05:04:00.968Z,856.8
2023-04-11T05:05:00.442Z,915.5
2023-04-11T05:06:00.395Z,964.7
2023-04-11T05:07:00.620Z,1013.8
2023-04-11T05:08:00.393Z,1062.9
2023-04-11T05:09:00.387Z,1190.7
2023-04-11T05:10:01.042Z,1318.4
2023-04-11T05:12:00.620Z,1539.9
2023-04-11T05:13:00.417Z,1650.6
2023-04-11T05:14:00.416Z,1807.7
2023-04-11T05:15:01.052Z,1964.9
2023-04-11T05:17:01.214Z,2291.3
2023-04-11T05:18:00.445Z,2454.5
2023-04-11T05:19:00.406Z,2591.7
2023-04-11T05:20:01.052Z,2728.9
2023-04-11T05:22:00.652Z,3147.8
2023-04-11T05:23:00.393Z,3357.3
2023-04-11T05:24:00.395Z,3451.9
2023-04-11T05:25:00.435Z,3546.6
2023-04-11T05:26:00.394Z,3663.3
2023-04-11T05:27:00.651Z,3779.9
2023-04-11T05:28:00.405Z,3896.6
2023-04-11T05:29:00.399Z,3974.1
2023-04-11T05:30:01.540Z,4051.5
2023-04-11T05:32:00.608Z,4022.6
2023-04-11T05:33:00.439Z,4008.1
2023-04-11T05:34:00.407Z,3942.6
2023-04-11T05:35:00.449Z,3877.1
2023-04-11T05:36:00.454Z,3939.8
2023-04-11T05:37:01.116Z,4002.5
2023-04-11T05:38:00.404Z,4065.3
2023-04-11T05:39:00.399Z,4248.2
2023-04-11T05:40:00.721Z,4431.1
2023-04-11T05:41:00.421Z,4674.7
2023-04-11T05:42:00.614Z,4918.2
2023-04-11T05:43:00.408Z,5161.7
2023-04-11T05:44:00.411Z,5442.7
2023-04-11T05:45:01.016Z,5723.7
2023-04-11T05:47:00.606Z,6291.1
2023-04-11T05:48:00.444Z,6574.7
2023-04-11T05:49:00.529Z,7080.1
2023-04-11T05:50:00.452Z,7585.5
2023-04-11T05:51:00.434Z,8154.5
2023-04-11T05:52:00.607Z,8723.5
2023-04-11T05:53:00.399Z,9292.5
2023-04-11T05:54:00.425Z,9901.1
2023-04-11T05:55:01.078Z,10509.6
2023-04-11T05:57:00.607Z,11794.3
2023-04-11T05:58:00.413Z,12436.6
2023-04-11T05:59:00.417Z,13558.3
2023-04-11T06:00:01.055Z,14679.9
2023-04-11T06:02:00.968Z,17107.0
2023-04-11T06:03:00.642Z,18320.5
2023-04-11T06:04:00.788Z,19945.1
2023-04-11T06:05:00.528Z,21569.6
2023-04-11T06:06:00.419Z,22746.9
2023-04-11T06:07:15.411Z,23924.1
2023-04-11T06:08:00.625Z,25101.4
2023-04-11T06:09:00.413Z,25799.1
2023-04-11T06:10:00.475Z,26496.9
2023-04-11T06:37:00.968Z,19467.7
2023-04-11T06:38:00.982Z,18587.8
2023-04-11T06:39:00.962Z,17326.4
2023-04-11T06:40:01.705Z,16485.5
2023-04-11T06:41:00.959Z,16390.4
2023-04-11T06:42:00.977Z,16319.1
2023-04-11T06:43:01.021Z,16263.7
2023-04-11T06:44:00.982Z,16067.8
2023-04-11T06:47:01.048Z,16740.8
2023-04-11T06:48:01.024Z,17068.2
2023-04-11T07:17:00.472Z,31621.7
2023-04-11T07:18:00.562Z,31917.3
2023-04-11T07:19:00.482Z,36009.8
2023-04-11T07:20:01.593Z,38738.2
2023-04-11T07:21:00.486Z,42566.3
2023-04-11T07:22:00.612Z,45437.4
2023-04-11T07:23:00.482Z,47670.4
2023-04-11T07:24:00.612Z,49456.9
2023-04-11T07:25:01.673Z,50918.5
2023-04-11T07:26:00.481Z,52136.6
2023-04-11T07:27:00.478Z,53167.2
2023-04-11T07:28:00.491Z,54050.6
2023-04-11T07:29:00.484Z,54816.3
2023-04-11T07:30:02.205Z,57234.8
2023-04-11T07:32:00.583Z,61598.9
2023-04-11T07:33:00.554Z,63781.0
2023-04-11T07:34:00.491Z,64658.0
2023-04-11T07:35:01.403Z,65535.0
2023-04-11T08:35:01.506Z,58101.0
2023-04-11T08:37:00.326Z,43005.0
2023-04-11T08:38:00.385Z,41118.0
2023-04-11T08:39:00.333Z,37709.0
2023-04-11T08:40:01.415Z,35436.3
2023-04-11T08:41:00.344Z,34095.9
2023-04-11T08:42:00.323Z,33090.5
2023-04-11T08:43:00.336Z,32308.6
2023-04-11T08:44:00.326Z,32695.3
2023-04-11T08:47:00.328Z,34945.0
2023-04-11T08:48:00.427Z,35704.5
2023-04-11T08:49:00.339Z,37693.2
2023-04-11T08:50:01.200Z,38188.8
2023-04-11T08:51:00.618Z,40194.0
2023-04-11T08:52:00.320Z,42199.2
2023-04-11T08:53:00.341Z,44204.4
2023-04-11T08:54:00.325Z,46968.5
2023-04-11T08:57:00.325Z,54996.9
2023-04-11T08:58:00.321Z,57629.1
2023-04-11T08:59:00.334Z,59586.3
2023-04-11T09:02:00.408Z,64204.5
2023-04-11T09:03:00.411Z,65535.0
2023-04-11T09:37:01.192Z,63141.5
2023-04-11T09:38:00.805Z,61090.0
2023-04-11T09:39:00.879Z,58781.8
2023-04-11T09:40:00.827Z,56177.3
2023-04-11T09:41:00.831Z,53572.7
2023-04-11T09:42:01.025Z,51396.5
2023-04-11T09:43:00.808Z,49220.2
2023-04-11T09:44:00.818Z,48584.9
2023-04-11T09:45:01.505Z,47949.7
2023-04-11T09:46:00.941Z,47314.4
2023-04-11T09:52:00.802Z,49388.7
2023-04-11T09:53:00.934Z,51463.1
2023-04-11T09:54:00.803Z,54067.6
2023-04-11T09:57:01.092Z,61452.9
2023-04-11T09:58:00.931Z,63629.2
2023-04-11T09:59:00.826Z,63449.5
2023-04-11T10:01:00.812Z,63090.2
2023-04-11T10:02:00.959Z,63040.3
2023-04-11T10:03:00.935Z,62990.5
2023-04-11T10:04:00.983Z,62409.1
2023-04-11T10:06:00.807Z,61246.5
2023-04-11T10:07:00.816Z,58403.0
2023-04-11T10:08:00.872Z,55559.5
2023-04-11T10:09:00.806Z,54010.5
2023-04-11T10:11:00.871Z,50912.5
2023-04-11T10:12:00.872Z,49601.3
2023-04-11T10:13:00.889Z,48290.1
2023-04-11T10:37:00.399Z,62522.7
2023-04-11T10:38:00.390Z,61016.5
2023-04-11T10:39:00.422Z,57692.4
2023-04-11T10:40:01.262Z,55476.3
2023-04-11T10:41:00.391Z,53893.4
2023-04-11T10:42:00.411Z,52404.4
2023-04-11T10:43:00.389Z,51246.2
2023-04-11T10:44:00.713Z,50538.3
2023-04-11T10:45:01.420Z,49959.1
2023-04-11T10:46:00.390Z,49476.4
2023-04-11T10:47:00.532Z,47759.0
2023-04-11T10:48:00.407Z,46286.9
2023-04-11T10:49:00.686Z,44474.9
2023-04-11T10:50:16.367Z,41379.7
2023-04-11T10:51:00.412Z,38284.5
2023-04-11T10:52:00.376Z,36240.0
2023-04-11T10:53:00.397Z,34195.5
2023-04-11T10:54:00.748Z,33053.1
2023-04-11T10:55:00.766Z,31910.7
2023-04-11T10:56:00.395Z,30768.3
2023-04-11T10:57:00.408Z,30432.7
2023-04-11T10:58:00.399Z,30097.2
2023-04-11T10:59:00.429Z,29815.1
2023-04-11T11:01:00.426Z,29251.0
2023-04-11T11:02:00.465Z,29691.9
2023-04-11T11:03:00.521Z,30132.9
2023-04-11T11:04:00.690Z,30072.6
2023-04-11T11:05:15.433Z,30012.3
2023-04-11T11:06:00.889Z,29952.1
2023-04-11T11:07:00.400Z,29264.3
2023-04-11T11:08:00.394Z,28576.5
2023-04-11T11:45:02.078Z,65535.0
2023-04-11T12:45:01.629Z,65535.0
2023-04-11T13:30:01.431Z,65535.0
2023-04-11T14:15:01.708Z,65535.0
2023-04-11T14:27:01.794Z,65463.5
2023-04-11T14:28:00.588Z,65392.1
2023-04-11T14:29:00.622Z,64712.1
2023-04-11T14:30:01.421Z,64032.2
2023-04-11T14:31:00.668Z,63352.3
2023-04-11T14:32:00.877Z,63092.3
2023-04-11T14:33:00.608Z,62832.4
2023-04-11T14:34:00.620Z,62623.7
2023-04-11T14:35:03.061Z,62414.9
2023-04-11T14:37:15.607Z,61987.3
2023-04-11T14:38:15.842Z,61768.3
2023-04-11T14:39:15.648Z,60646.2
2023-04-11T14:40:01.430Z,59524.1
2023-04-11T15:05:01.810Z,65535.0
2023-04-11T15:14:00.819Z,65045.1
2023-04-11T15:17:00.755Z,64313.2
2023-04-11T15:18:00.808Z,64315.8
2023-04-11T16:27:00.605Z,37454.3
2023-04-11T16:28:00.606Z,36063.5
2023-04-11T16:29:00.603Z,33424.8
2023-04-11T16:30:01.702Z,31665.7
2023-04-11T16:32:00.634Z,29103.5
2023-04-11T16:33:00.676Z,28088.0
2023-04-11T16:34:00.609Z,27139.6
2023-04-11T16:35:01.434Z,26363.6
2023-04-11T16:37:00.601Z,24778.8
2023-04-11T16:38:00.611Z,23974.7
2023-04-11T16:39:00.606Z,23295.7
2023-04-11T16:42:00.603Z,18928.8
2023-04-11T16:43:00.603Z,18088.2
2023-04-11T16:44:00.608Z,18292.5
2023-04-11T16:45:01.582Z,18496.7
2023-04-11T16:47:00.617Z,19307.3
2023-04-11T16:48:00.742Z,19913.7
2023-04-11T16:49:00.605Z,20754.1
2023-04-11T16:52:00.602Z,23686.1
2023-04-11T16:53:00.601Z,24937.3
2023-04-11T16:54:00.855Z,27438.0
2023-04-11T16:55:01.523Z,29938.7
2023-04-11T16:57:00.806Z,35135.2
2023-04-11T16:58:00.605Z,37830.9
2023-04-11T16:59:00.617Z,39805.6
2023-04-11T17:02:00.688Z,45237.3
2023-04-11T17:03:00.741Z,46719.6
2023-04-11T17:04:00.933Z,47214.2
2023-04-11T17:05:01.626Z,47708.8
2023-04-11T17:07:00.609Z,48039.2
2023-04-11T17:08:00.611Z,47875.0
2023-04-11T17:09:00.615Z,46179.6
2023-04-11T17:10:01.784Z,44484.2
2023-04-11T17:12:00.618Z,40555.9
2023-04-11T17:13:00.633Z,38323.1
2023-04-11T17:14:00.623Z,36801.7
2023-04-11T17:17:00.619Z,32911.9
2023-04-11T17:18:00.659Z,32064.8
2023-04-11T17:19:00.609Z,31893.1
2023-04-11T17:20:00.959Z,31721.5
2023-04-11T17:21:00.620Z,31549.8
2023-04-11T17:22:00.612Z,31361.8
2023-04-11T17:23:00.609Z,31173.8
2023-04-11T17:24:05.615Z,30971.3
2023-04-11T17:25:06.528Z,30768.7
2023-04-11T17:27:00.613Z,30235.4
2023-04-11T17:28:00.878Z,29904.6
2023-04-11T17:29:00.639Z,28802.8
2023-04-11T17:32:00.696Z,24880.9
2023-04-11T17:33:00.736Z,23162.5
2023-04-11T17:34:00.652Z,21393.9
2023-04-11T17:37:00.616Z,16416.2
2023-04-11T17:38:00.636Z,14975.9
2023-04-11T17:39:00.621Z,13654.5
2023-04-11T17:42:00.898Z,9810.1
2023-04-11T17:43:00.683Z,8608.3
2023-04-11T17:44:00.896Z,7736.7
2023-04-11T17:45:20.177Z,6865.2
2023-04-11T17:47:00.598Z,5363.2
2023-04-11T17:48:01.692Z,4732.7
2023-04-11T17:49:00.641Z,4317.6
2023-04-11T17:50:02.058Z,3902.5
2023-04-11T17:51:00.617Z,3487.3
2023-04-11T17:52:00.612Z,3341.9
2023-04-11T17:53:00.634Z,3196.5
2023-04-11T17:54:00.629Z,3160.3
2023-04-11T17:57:00.628Z,3196.8
2023-04-11T17:58:00.624Z,3305.9
2023-04-11T17:59:00.632Z,3388.7
2023-04-11T18:02:00.767Z,3588.0
2023-04-11T18:03:00.775Z,3621.7
2023-04-11T18:04:01.109Z,3652.3
2023-04-11T18:05:03.990Z,3682.9
2023-04-11T18:06:00.659Z,3713.5
2023-04-11T18:07:00.687Z,3706.7
2023-04-11T18:08:00.704Z,3699.9
2023-04-11T18:09:00.631Z,3687.9
2023-04-11T18:10:00.882Z,3675.9
2023-04-11T18:11:00.627Z,3663.9
2023-04-11T18:12:00.904Z,3451.0
2023-04-11T18:13:00.634Z,3238.1
2023-04-11T18:14:00.628Z,3035.4
2023-04-11T18:17:00.653Z,2447.1
2023-04-11T18:18:00.675Z,2264.2
2023-04-11T18:19:00.644Z,2085.5
2023-04-11T18:20:01.163Z,1906.9
2023-04-11T18:21:00.634Z,1728.2
2023-04-11T18:22:00.632Z,1596.2
2023-04-11T18:23:00.630Z,1464.2
2023-04-11T18:24:00.625Z,1383.3
2023-04-11T18:25:01.634Z,1302.3
2023-04-11T18:26:00.658Z,1221.4
2023-04-11T18:27:00.631Z,1165.9
2023-04-11T18:28:00.656Z,1110.3
2023-04-11T18:29:00.638Z,1062.9
2023-04-11T18:32:00.896Z,923.7
2023-04-11T18:33:00.699Z,879.4
2023-04-11T18:34:02.615Z,827.9
2023-04-11T18:37:00.659Z,662.9
2023-04-11T18:38:00.650Z,600.9
2023-04-11T18:39:00.838Z,538.7
2023-04-11T18:42:00.637Z,364.1
2023-04-11T18:43:00.637Z,314.0
2023-04-11T18:44:01.958Z,276.5
2023-04-11T18:47:03.314Z,174.2
2023-04-11T18:48:00.817Z,146.8
2023-04-11T18:49:00.749Z,128.5
2023-04-11T18:52:00.643Z,79.3
2023-04-11T18:53:04.936Z,66.9
2023-04-11T18:54:00.643Z,58.4
2023-04-11T18:55:01.772Z,49.9
2023-04-11T18:57:00.649Z,35.9
2023-04-11T18:58:01.139Z,30.3
2023-04-11T18:59:04.928Z,26.5
2023-04-11T19:02:01.785Z,16.5
2023-04-11T19:03:00.828Z,14.0
2023-04-11T19:04:01.576Z,12.3
2023-04-11T19:05:03.415Z,10.5
2023-04-11T19:07:00.642Z,7.6
2023-04-11T19:08:00.637Z,6.4
2023-04-11T19:09:00.643Z,5.6
2023-04-11T19:12:00.646Z,3.5
2023-04-11T19:13:00.634Z,2.9
2023-04-11T19:14:00.633Z,2.6
2023-04-11T19:15:01.547Z,2.3
2023-04-11T19:16:01.666Z,1.9
2023-04-11T19:17:00.647Z,1.7
2023-04-11T19:18:05.687Z,1.4
2023-04-11T19:19:00.691Z,1.2
2023-04-11T19:20:01.495Z,1.0
2023-04-11T19:22:00.912Z,0.7
2023-04-11T19:23:00.641Z,0.5
2023-04-11T19:28:00.653Z,0.2
2023-04-11T19:29:00.647Z,0.1
